Shinsei Maru — JD2188 — position and weather

sailwx.info

Track history (hours):
 
Tides and Currents Weather Stations Pressure Air Temp Water Temp Dewpoint Dewpoint Depression Visibility Wind Speed Wind Dir Waves Ship Positions

Shinsei Maru

Last reported at 2015-Mar-05 19:33 UTC. Time now 2015-Mar-26 22:35 UTC.
Position N 34°02' E 130°45'.
Warning: this ship's position is 21 days out of date.

Length 104 m; draft 6.5 m.

Type: Tanker. MMSI: 431301775.

Date/timePositionNaut miles runAvg speedWind from/ knotsBaromVisibWave heightAir tempDewpointWater temp
2015-Mar-05 19:33N 34°02' E 130°45'1413.1
2015-Mar-05 18:29N 33°59' E 130°29'1213.1
2015-Mar-05 17:32N 33°52' E 130°16'1313.2
2015-Mar-05 16:32N 33°46' E 130°03'49 4.4
2015-Mar-05 05:21N 33°00' E 130°23'  
2015-Mar-01 06:07N 33°58' E 135°01'814.9
2015-Mar-01 05:33N 34°06' E 134°60'1514.8
2015-Mar-01 04:33N 34°21' E 134°59'1414.5
2015-Mar-01 03:33N 34°35' E 135°03'  
Track history (hours):
 
Tides and Currents Weather Stations Pressure Air Temp Water Temp Dewpoint Dewpoint Depression Visibility Wind Speed Wind Dir Waves Ship Positions

Shinsei Maru

Last reported at 2015-Mar-05 19:33 UTC. Time now 2015-Mar-26 22:35 UTC.
Position N 34°02' E 130°45'.
Warning: this ship's position is 21 days out of date.

Length 104 m; draft 6.5 m.

Type: Tanker. MMSI: 431301775.

Date/timePositionNaut miles runAvg speedWind from/ knotsBaromVisibWave heightAir tempDewpointWater temp
2015-Mar-05 19:33N 34°02' E 130°45'1413.1
2015-Mar-05 18:29N 33°59' E 130°29'1213.1
2015-Mar-05 17:32N 33°52' E 130°16'1313.2
2015-Mar-05 16:32N 33°46' E 130°03'49 4.4
2015-Mar-05 05:21N 33°00' E 130°23'  
2015-Mar-01 06:07N 33°58' E 135°01'814.9
2015-Mar-01 05:33N 34°06' E 134°60'1514.8
2015-Mar-01 04:33N 34°21' E 134°59'1414.5
2015-Mar-01 03:33N 34°35' E 135°03'  

Dump ship's entire track history